sensor_id;sensor_type;location;lat;lon;timestamp;P1;durP1;ratioP1;P2;durP2;ratioP2
22861;SDS011;11598;50.652;6.172;2023-05-07T00:06:50;3.53;;;1.50;;
22861;SDS011;11598;50.652;6.172;2023-05-07T00:16:51;4.00;;;1.42;;
22861;SDS011;11598;50.652;6.172;2023-05-07T00:26:51;3.78;;;1.50;;
22861;SDS011;11598;50.652;6.172;2023-05-07T00:36:52;5.43;;;1.70;;
22861;SDS011;11598;50.652;6.172;2023-05-07T00:46:53;4.03;;;1.40;;
22861;SDS011;11598;50.652;6.172;2023-05-07T00:56:54;4.82;;;1.50;;
22861;SDS011;11598;50.652;6.172;2023-05-07T01:06:55;3.63;;;1.33;;
22861;SDS011;11598;50.652;6.172;2023-05-07T01:16:56;4.57;;;1.30;;
22861;SDS011;11598;50.652;6.172;2023-05-07T01:26:57;3.38;;;1.35;;
22861;SDS011;11598;50.652;6.172;2023-05-07T01:36:57;4.60;;;1.17;;
22861;SDS011;11598;50.652;6.172;2023-05-07T01:46:59;4.55;;;1.50;;
22861;SDS011;11598;50.652;6.172;2023-05-07T01:57:01;3.95;;;1.40;;
22861;SDS011;11598;50.652;6.172;2023-05-07T02:07:01;3.88;;;1.20;;
22861;SDS011;11598;50.652;6.172;2023-05-07T02:17:02;4.25;;;1.40;;
22861;SDS011;11598;50.652;6.172;2023-05-07T02:27:02;5.88;;;1.10;;
22861;SDS011;11598;50.652;6.172;2023-05-07T02:37:03;4.30;;;1.00;;
22861;SDS011;11598;50.652;6.172;2023-05-07T02:47:03;3.08;;;1.05;;
22861;SDS011;11598;50.652;6.172;2023-05-07T02:57:04;3.90;;;1.10;;
22861;SDS011;11598;50.652;6.172;2023-05-07T03:07:04;4.70;;;1.05;;
22861;SDS011;11598;50.652;6.172;2023-05-07T03:17:05;5.50;;;1.25;;
22861;SDS011;11598;50.652;6.172;2023-05-07T03:27:05;3.80;;;1.20;;
22861;SDS011;11598;50.652;6.172;2023-05-07T03:37:05;2.95;;;1.10;;
22861;SDS011;11598;50.652;6.172;2023-05-07T03:47:07;1.98;;;0.80;;
22861;SDS011;11598;50.652;6.172;2023-05-07T03:57:07;4.30;;;1.20;;
22861;SDS011;11598;50.652;6.172;2023-05-07T04:07:08;3.65;;;0.90;;
22861;SDS011;11598;50.652;6.172;2023-05-07T04:17:08;5.07;;;1.33;;
22861;SDS011;11598;50.652;6.172;2023-05-07T04:27:10;2.78;;;0.80;;
22861;SDS011;11598;50.652;6.172;2023-05-07T04:37:11;3.53;;;0.88;;
22861;SDS011;11598;50.652;6.172;2023-05-07T04:47:11;2.67;;;1.00;;
22861;SDS011;11598;50.652;6.172;2023-05-07T04:57:12;2.38;;;0.90;;
22861;SDS011;11598;50.652;6.172;2023-05-07T05:07:13;2.55;;;0.90;;
22861;SDS011;11598;50.652;6.172;2023-05-07T05:17:13;28.02;;;15.23;;
22861;SDS011;11598;50.652;6.172;2023-05-07T05:27:13;8.48;;;4.47;;
22861;SDS011;11598;50.652;6.172;2023-05-07T05:37:14;7.35;;;2.22;;
22861;SDS011;11598;50.652;6.172;2023-05-07T05:47:14;3.72;;;1.02;;
22861;SDS011;11598;50.652;6.172;2023-05-07T05:57:15;3.00;;;0.82;;
22861;SDS011;11598;50.652;6.172;2023-05-07T06:07:15;2.63;;;0.90;;
22861;SDS011;11598;50.652;6.172;2023-05-07T06:17:16;3.92;;;0.82;;
22861;SDS011;11598;50.652;6.172;2023-05-07T06:27:16;3.80;;;1.10;;
22861;SDS011;11598;50.652;6.172;2023-05-07T06:37:16;5.57;;;0.98;;
22861;SDS011;11598;50.652;6.172;2023-05-07T06:47:17;4.07;;;1.35;;
22861;SDS011;11598;50.652;6.172;2023-05-07T06:57:17;2.25;;;0.98;;
22861;SDS011;11598;50.652;6.172;2023-05-07T07:07:18;2.83;;;1.05;;
22861;SDS011;11598;50.652;6.172;2023-05-07T07:17:18;3.20;;;1.20;;
22861;SDS011;11598;50.652;6.172;2023-05-07T07:27:18;3.60;;;1.30;;
22861;SDS011;11598;50.652;6.172;2023-05-07T07:37:19;6.38;;;1.48;;
22861;SDS011;11598;50.652;6.172;2023-05-07T07:47:19;6.75;;;1.55;;
22861;SDS011;11598;50.652;6.172;2023-05-07T07:57:19;3.88;;;1.42;;
22861;SDS011;11598;50.652;6.172;2023-05-07T08:07:20;3.40;;;1.20;;
22861;SDS011;11598;50.652;6.172;2023-05-07T08:17:22;4.22;;;1.20;;
22861;SDS011;11598;50.652;6.172;2023-05-07T08:27:23;4.95;;;1.30;;
22861;SDS011;11598;50.652;6.172;2023-05-07T08:37:23;2.63;;;0.98;;
22861;SDS011;11598;50.652;6.172;2023-05-07T08:47:23;3.75;;;1.15;;
22861;SDS011;11598;50.652;6.172;2023-05-07T08:57:33;3.33;;;1.02;;
22861;SDS011;11598;50.652;6.172;2023-05-07T09:07:33;3.15;;;1.30;;
22861;SDS011;11598;50.652;6.172;2023-05-07T09:17:34;4.87;;;1.47;;
22861;SDS011;11598;50.652;6.172;2023-05-07T09:27:34;6.28;;;1.60;;
22861;SDS011;11598;50.652;6.172;2023-05-07T09:37:35;4.20;;;1.65;;
22861;SDS011;11598;50.652;6.172;2023-05-07T09:47:36;7.28;;;1.45;;
22861;SDS011;11598;50.652;6.172;2023-05-07T09:57:39;4.63;;;1.60;;
22861;SDS011;11598;50.652;6.172;2023-05-07T10:07:40;4.07;;;1.55;;
22861;SDS011;11598;50.652;6.172;2023-05-07T10:17:41;4.60;;;2.07;;
22861;SDS011;11598;50.652;6.172;2023-05-07T10:27:41;3.75;;;1.60;;
22861;SDS011;11598;50.652;6.172;2023-05-07T10:37:43;4.28;;;1.48;;
22861;SDS011;11598;50.652;6.172;2023-05-07T11:08:21;7.82;;;3.22;;
22861;SDS011;11598;50.652;6.172;2023-05-07T11:18:21;5.93;;;2.70;;
22861;SDS011;11598;50.652;6.172;2023-05-07T11:28:22;5.57;;;2.67;;
22861;SDS011;11598;50.652;6.172;2023-05-07T11:38:22;6.80;;;2.72;;
22861;SDS011;11598;50.652;6.172;2023-05-07T11:48:23;6.63;;;2.38;;
22861;SDS011;11598;50.652;6.172;2023-05-07T11:58:24;6.53;;;2.90;;
22861;SDS011;11598;50.652;6.172;2023-05-07T12:08:25;14.18;;;3.65;;
22861;SDS011;11598;50.652;6.172;2023-05-07T12:18:25;10.13;;;4.55;;
22861;SDS011;11598;50.652;6.172;2023-05-07T12:28:26;14.27;;;4.50;;
22861;SDS011;11598;50.652;6.172;2023-05-07T12:38:27;15.97;;;6.90;;
22861;SDS011;11598;50.652;6.172;2023-05-07T12:48:38;9.98;;;6.25;;
22861;SDS011;11598;50.652;6.172;2023-05-07T12:58:43;11.32;;;6.78;;
22861;SDS011;11598;50.652;6.172;2023-05-07T13:08:43;7.28;;;3.72;;
22861;SDS011;11598;50.652;6.172;2023-05-07T13:18:44;7.13;;;4.72;;
22861;SDS011;11598;50.652;6.172;2023-05-07T13:28:45;8.75;;;5.97;;
22861;SDS011;11598;50.652;6.172;2023-05-07T13:38:46;14.68;;;9.90;;
22861;SDS011;11598;50.652;6.172;2023-05-07T13:48:47;20.60;;;12.53;;
22861;SDS011;11598;50.652;6.172;2023-05-07T13:58:47;24.25;;;14.75;;
22861;SDS011;11598;50.652;6.172;2023-05-07T14:08:47;21.23;;;14.77;;
22861;SDS011;11598;50.652;6.172;2023-05-07T14:18:48;20.60;;;15.68;;
22861;SDS011;11598;50.652;6.172;2023-05-07T14:28:48;22.30;;;16.88;;
22861;SDS011;11598;50.652;6.172;2023-05-07T14:38:49;29.67;;;19.17;;
22861;SDS011;11598;50.652;6.172;2023-05-07T14:48:49;26.45;;;16.17;;
22861;SDS011;11598;50.652;6.172;2023-05-07T14:58:50;23.15;;;14.02;;
22861;SDS011;11598;50.652;6.172;2023-05-07T15:08:50;24.83;;;16.10;;
22861;SDS011;11598;50.652;6.172;2023-05-07T15:18:51;27.55;;;16.55;;
22861;SDS011;11598;50.652;6.172;2023-05-07T15:28:51;32.40;;;17.58;;
22861;SDS011;11598;50.652;6.172;2023-05-07T15:38:52;27.90;;;16.58;;
22861;SDS011;11598;50.652;6.172;2023-05-07T15:48:52;20.55;;;14.15;;
22861;SDS011;11598;50.652;6.172;2023-05-07T15:58:53;31.83;;;18.27;;
22861;SDS011;11598;50.652;6.172;2023-05-07T16:08:53;19.52;;;14.05;;
22861;SDS011;11598;50.652;6.172;2023-05-07T16:18:54;32.47;;;19.05;;
22861;SDS011;11598;50.652;6.172;2023-05-07T16:28:55;27.45;;;18.10;;
22861;SDS011;11598;50.652;6.172;2023-05-07T16:38:55;29.08;;;17.50;;
22861;SDS011;11598;50.652;6.172;2023-05-07T16:48:55;24.17;;;16.70;;
22861;SDS011;11598;50.652;6.172;2023-05-07T16:58:56;30.30;;;17.00;;
22861;SDS011;11598;50.652;6.172;2023-05-07T17:08:56;27.02;;;17.27;;
22861;SDS011;11598;50.652;6.172;2023-05-07T17:18:56;19.20;;;15.32;;
22861;SDS011;11598;50.652;6.172;2023-05-07T17:28:57;16.02;;;11.35;;
22861;SDS011;11598;50.652;6.172;2023-05-07T17:38:57;18.83;;;12.68;;
22861;SDS011;11598;50.652;6.172;2023-05-07T17:48:57;16.73;;;13.07;;
22861;SDS011;11598;50.652;6.172;2023-05-07T17:58:58;21.02;;;14.00;;
22861;SDS011;11598;50.652;6.172;2023-05-07T18:08:58;19.92;;;15.75;;
22861;SDS011;11598;50.652;6.172;2023-05-07T18:18:59;13.43;;;9.95;;
22861;SDS011;11598;50.652;6.172;2023-05-07T18:28:59;14.02;;;9.60;;
22861;SDS011;11598;50.652;6.172;2023-05-07T18:39:00;14.60;;;10.20;;
22861;SDS011;11598;50.652;6.172;2023-05-07T18:49:00;16.27;;;8.85;;
22861;SDS011;11598;50.652;6.172;2023-05-07T18:59:00;19.80;;;11.57;;
22861;SDS011;11598;50.652;6.172;2023-05-07T19:09:01;20.38;;;12.95;;
22861;SDS011;11598;50.652;6.172;2023-05-07T19:19:02;28.17;;;13.00;;
22861;SDS011;11598;50.652;6.172;2023-05-07T19:29:02;27.42;;;14.40;;
22861;SDS011;11598;50.652;6.172;2023-05-07T19:39:02;27.30;;;15.90;;
22861;SDS011;11598;50.652;6.172;2023-05-07T19:49:03;33.53;;;16.17;;
22861;SDS011;11598;50.652;6.172;2023-05-07T19:59:03;31.15;;;19.25;;
22861;SDS011;11598;50.652;6.172;2023-05-07T20:09:04;38.10;;;22.50;;
22861;SDS011;11598;50.652;6.172;2023-05-07T20:19:06;38.20;;;21.95;;
22861;SDS011;11598;50.652;6.172;2023-05-07T20:29:06;55.30;;;22.45;;
22861;SDS011;11598;50.652;6.172;2023-05-07T20:39:07;31.13;;;19.98;;
22861;SDS011;11598;50.652;6.172;2023-05-07T20:49:08;51.22;;;24.48;;
22861;SDS011;11598;50.652;6.172;2023-05-07T20:59:08;25.40;;;16.90;;
22861;SDS011;11598;50.652;6.172;2023-05-07T21:09:09;53.30;;;24.38;;
22861;SDS011;11598;50.652;6.172;2023-05-07T21:19:10;42.58;;;22.42;;
22861;SDS011;11598;50.652;6.172;2023-05-07T21:29:11;53.95;;;23.52;;
22861;SDS011;11598;50.652;6.172;2023-05-07T21:39:11;34.28;;;21.15;;
22861;SDS011;11598;50.652;6.172;2023-05-07T21:49:11;28.92;;;17.63;;
22861;SDS011;11598;50.652;6.172;2023-05-07T21:59:12;60.47;;;25.48;;
22861;SDS011;11598;50.652;6.172;2023-05-07T22:09:12;27.17;;;20.17;;
22861;SDS011;11598;50.652;6.172;2023-05-07T22:19:13;50.80;;;23.17;;
22861;SDS011;11598;50.652;6.172;2023-05-07T22:29:16;69.07;;;24.23;;
22861;SDS011;11598;50.652;6.172;2023-05-07T22:39:17;58.55;;;25.67;;
22861;SDS011;11598;50.652;6.172;2023-05-07T22:49:17;47.70;;;24.33;;
22861;SDS011;11598;50.652;6.172;2023-05-07T22:59:18;49.25;;;23.70;;
22861;SDS011;11598;50.652;6.172;2023-05-07T23:09:19;41.55;;;25.23;;
22861;SDS011;11598;50.652;6.172;2023-05-07T23:19:19;55.22;;;26.25;;
22861;SDS011;11598;50.652;6.172;2023-05-07T23:29:19;66.28;;;28.58;;
22861;SDS011;11598;50.652;6.172;2023-05-07T23:39:20;28.35;;;21.00;;
22861;SDS011;11598;50.652;6.172;2023-05-07T23:49:20;87.50;;;30.77;;
22861;SDS011;11598;50.652;6.172;2023-05-07T23:59:20;33.10;;;21.52;;
